createdAt,value
2023-09-04T00:00:20.600Z,2.03
2023-09-04T00:02:48.919Z,1.56
2023-09-04T00:05:16.045Z,1.61
2023-09-04T00:07:42.929Z,1.35
2023-09-04T00:10:10.368Z,1.03
2023-09-04T00:12:37.307Z,1.35
2023-09-04T00:15:05.193Z,1.10
2023-09-04T00:17:32.440Z,1.28
2023-09-04T00:20:00.852Z,1.95
2023-09-04T00:22:27.802Z,1.74
2023-09-04T00:24:54.890Z,1.50
2023-09-04T00:27:21.711Z,1.01
2023-09-04T00:29:48.888Z,1.58
2023-09-04T00:32:15.840Z,1.12
2023-09-04T00:34:42.746Z,1.35
2023-09-04T00:37:11.019Z,2.22
2023-09-04T00:39:38.052Z,1.69
2023-09-04T00:42:05.587Z,1.22
2023-09-04T00:44:32.608Z,0.92
2023-09-04T00:47:00.600Z,1.10
2023-09-04T00:49:28.547Z,1.24
2023-09-04T00:51:56.433Z,1.39
2023-09-04T00:54:25.642Z,1.31
2023-09-04T00:56:52.870Z,1.33
2023-09-04T00:59:19.871Z,1.22
2023-09-04T01:01:46.792Z,0.91
2023-09-04T01:04:13.773Z,0.62
2023-09-04T01:06:40.601Z,0.65
2023-09-04T01:09:07.627Z,0.61
2023-09-04T01:11:41.705Z,0.63
2023-09-04T01:14:16.476Z,0.70
2023-09-04T01:16:45.133Z,0.61
2023-09-04T01:19:12.379Z,0.77
2023-09-04T01:21:40.841Z,1.05
2023-09-04T01:24:07.997Z,0.95
2023-09-04T01:26:38.267Z,1.02
2023-09-04T01:29:14.197Z,0.90
2023-09-04T01:31:47.543Z,0.73
2023-09-04T01:34:20.517Z,0.86
2023-09-04T01:36:52.617Z,0.85
2023-09-04T01:39:20.160Z,0.90
2023-09-04T01:41:47.114Z,0.70
2023-09-04T01:44:14.001Z,0.73
2023-09-04T01:46:41.155Z,0.60
2023-09-04T01:49:08.133Z,0.84
2023-09-04T01:51:34.983Z,0.94
2023-09-04T01:54:03.483Z,0.87
2023-09-04T01:56:30.274Z,0.82
2023-09-04T01:58:57.200Z,0.84
2023-09-04T02:01:24.172Z,0.76
2023-09-04T02:03:54.541Z,0.64
2023-09-04T02:06:21.528Z,1.01
2023-09-04T02:08:48.421Z,0.67
2023-09-04T02:11:16.829Z,1.56
2023-09-04T02:13:43.698Z,1.15
2023-09-04T02:16:10.542Z,1.69
2023-09-04T02:18:37.499Z,1.64
2023-09-04T02:21:04.298Z,1.13
2023-09-04T02:23:31.184Z,0.88
2023-09-04T02:25:58.282Z,0.85
2023-09-04T02:28:26.807Z,0.64
2023-09-04T02:30:53.832Z,0.62
2023-09-04T02:33:20.732Z,1.60
2023-09-04T02:35:47.676Z,1.47
2023-09-04T02:38:14.584Z,1.21
2023-09-04T02:40:41.426Z,0.96
2023-09-04T02:43:08.309Z,0.98
2023-09-04T02:45:36.952Z,0.75
2023-09-04T02:48:04.595Z,0.54
2023-09-04T02:50:31.561Z,0.74
2023-09-04T02:52:58.457Z,1.48
2023-09-04T02:55:25.377Z,1.41
2023-09-04T02:57:52.298Z,1.74
2023-09-04T03:00:19.178Z,1.26
2023-09-04T03:02:47.494Z,0.96
2023-09-04T03:05:14.423Z,0.79
2023-09-04T03:07:41.199Z,0.70
2023-09-04T03:10:08.428Z,1.00
2023-09-04T03:12:35.337Z,1.98
2023-09-04T03:15:04.414Z,1.54
2023-09-04T03:17:32.652Z,1.00
2023-09-04T03:20:01.361Z,0.95
2023-09-04T03:22:28.338Z,0.88
2023-09-04T03:24:55.935Z,0.83
2023-09-04T03:27:22.997Z,1.68
2023-09-04T03:29:49.859Z,1.34
2023-09-04T03:32:16.704Z,1.24
2023-09-04T03:34:43.567Z,1.34
2023-09-04T03:37:12.302Z,1.44
2023-09-04T03:39:39.571Z,1.30
2023-09-04T03:42:06.717Z,1.38
2023-09-04T03:44:33.883Z,1.66
2023-09-04T03:47:00.813Z,2.53
2023-09-04T03:49:27.702Z,1.68
2023-09-04T03:51:54.664Z,1.14
2023-09-04T03:54:23.028Z,1.38
2023-09-04T03:56:50.074Z,1.06
2023-09-04T03:59:16.889Z,1.19
2023-09-04T04:01:43.810Z,0.90
2023-09-04T04:04:11.031Z,0.80
2023-09-04T04:06:38.063Z,1.06
2023-09-04T04:09:05.284Z,1.19
2023-09-04T04:11:34.213Z,1.14
2023-09-04T04:14:01.236Z,1.07
2023-09-04T04:16:28.175Z,0.84
2023-09-04T04:18:55.383Z,0.72
2023-09-04T04:21:22.464Z,1.29
2023-09-04T04:23:49.737Z,1.73
2023-09-04T04:26:16.633Z,1.27
2023-09-04T04:28:44.933Z,1.23
2023-09-04T04:31:11.817Z,1.42
2023-09-04T04:33:38.741Z,1.08
2023-09-04T04:36:05.836Z,0.86
2023-09-04T04:38:32.747Z,1.36
2023-09-04T04:41:00.177Z,1.66
2023-09-04T04:43:27.070Z,1.36
2023-09-04T04:45:55.429Z,1.17
2023-09-04T04:48:22.668Z,0.94
2023-09-04T04:50:49.838Z,1.08
2023-09-04T04:53:16.876Z,1.22
2023-09-04T04:55:43.731Z,0.96
2023-09-04T04:58:10.686Z,0.96
2023-09-04T05:00:37.531Z,0.69
2023-09-04T05:03:06.166Z,1.47
2023-09-04T05:05:33.097Z,1.03
2023-09-04T05:08:00.050Z,1.14
2023-09-04T05:10:27.028Z,1.46
2023-09-04T05:12:53.998Z,1.19
2023-09-04T05:15:20.923Z,1.09
2023-09-04T05:17:48.291Z,1.53
2023-09-04T05:20:16.697Z,1.45
2023-09-04T05:22:44.032Z,1.08
2023-09-04T05:25:10.944Z,0.82
2023-09-04T05:27:38.022Z,0.70
2023-09-04T05:30:06.167Z,0.88
2023-09-04T05:32:33.125Z,0.98
2023-09-04T05:35:00.293Z,0.91
2023-09-04T05:37:28.611Z,0.72
2023-09-04T05:39:55.518Z,0.80
2023-09-04T05:42:22.757Z,0.66
2023-09-04T05:44:49.699Z,0.92
2023-09-04T05:47:16.573Z,1.06
2023-09-04T05:49:44.017Z,1.22
2023-09-04T05:52:10.836Z,1.75
2023-09-04T05:54:40.237Z,1.44
2023-09-04T05:57:07.108Z,1.27
2023-09-04T05:59:33.950Z,1.37
2023-09-04T06:02:00.884Z,1.06
2023-09-04T06:04:27.725Z,1.18
2023-09-04T06:06:54.634Z,0.92
2023-09-04T06:09:21.500Z,0.76
2023-09-04T06:11:52.340Z,1.49
2023-09-04T06:14:19.185Z,1.18
2023-09-04T06:16:46.026Z,1.00
2023-09-04T06:19:12.847Z,1.01
2023-09-04T06:21:39.704Z,1.03
2023-09-04T06:24:06.864Z,1.14
2023-09-04T06:26:33.751Z,0.97
2023-09-04T06:29:02.232Z,0.84
2023-09-04T06:31:29.552Z,1.41
2023-09-04T06:33:56.404Z,1.27
2023-09-04T06:36:23.306Z,1.01
2023-09-04T06:38:50.177Z,0.93
2023-09-04T06:41:17.009Z,0.92
2023-09-04T06:43:43.824Z,1.07
2023-09-04T06:46:12.020Z,0.88
2023-09-04T06:48:40.010Z,0.91
2023-09-04T06:51:08.600Z,1.80
2023-09-04T06:53:35.562Z,1.82
2023-09-04T06:56:02.347Z,1.78
2023-09-04T06:58:29.179Z,1.29
2023-09-04T07:00:56.269Z,1.02
2023-09-04T07:03:24.695Z,0.88
2023-09-04T07:05:51.811Z,1.83
2023-09-04T07:08:18.574Z,1.24
2023-09-04T07:10:45.381Z,0.94
2023-09-04T07:13:12.211Z,0.85
2023-09-04T07:15:39.067Z,0.84
2023-09-04T07:18:05.936Z,1.07
2023-09-04T07:20:34.173Z,1.17
2023-09-04T07:23:14.705Z,1.40
2023-09-04T07:25:47.969Z,1.61
2023-09-04T07:28:14.790Z,1.58
2023-09-04T07:30:41.615Z,1.28
2023-09-04T07:33:08.560Z,1.07
2023-09-04T07:35:36.782Z,1.03
2023-09-04T07:38:04.112Z,0.93
2023-09-04T07:40:31.211Z,0.83
2023-09-04T07:42:58.097Z,1.01
2023-09-04T07:45:25.295Z,0.94
2023-09-04T07:47:52.533Z,1.51
2023-09-04T07:50:19.687Z,1.08
2023-09-04T07:52:47.911Z,0.91
2023-09-04T07:55:14.903Z,1.28
2023-09-04T07:57:41.727Z,1.58
2023-09-04T08:00:09.145Z,1.17
2023-09-04T08:02:35.958Z,0.86
2023-09-04T08:05:02.875Z,0.85
2023-09-04T08:07:30.012Z,1.42
2023-09-04T08:10:00.797Z,0.91
2023-09-04T08:12:28.716Z,0.92
2023-09-04T08:14:55.898Z,0.86
2023-09-04T08:17:22.762Z,0.81
2023-09-04T08:19:49.629Z,0.62
2023-09-04T08:22:16.476Z,0.54
2023-09-04T08:24:43.601Z,0.78
2023-09-04T08:27:11.850Z,0.70
2023-09-04T08:29:38.616Z,0.51
2023-09-04T08:32:05.897Z,0.48
2023-09-04T08:34:33.338Z,0.43
2023-09-04T08:37:00.174Z,0.46
2023-09-04T08:39:26.932Z,1.11
2023-09-04T08:41:54.737Z,1.16
2023-09-04T08:44:24.186Z,0.86
2023-09-04T08:46:52.376Z,0.66
2023-09-04T08:49:20.251Z,0.54
2023-09-04T08:51:47.284Z,0.70
2023-09-04T08:54:15.728Z,1.34
2023-09-04T08:56:42.901Z,0.99
2023-09-04T08:59:09.872Z,0.87
2023-09-04T09:01:39.301Z,0.66
2023-09-04T09:04:06.523Z,0.73
2023-09-04T09:06:33.926Z,0.66
2023-09-04T09:09:01.321Z,1.29
2023-09-04T09:11:28.579Z,1.23
2023-09-04T09:13:55.544Z,0.75
2023-09-04T09:16:22.698Z,0.73
2023-09-04T09:18:55.165Z,0.60
2023-09-04T09:21:26.984Z,0.97
2023-09-04T09:24:13.678Z,0.86
2023-09-04T09:26:42.336Z,0.99
2023-09-04T09:29:10.293Z,0.73
2023-09-04T09:31:38.478Z,1.06
2023-09-04T09:34:07.126Z,1.00
2023-09-04T09:36:34.787Z,0.72
2023-09-04T09:39:04.625Z,0.52
2023-09-04T09:41:31.738Z,0.52
2023-09-04T09:44:00.712Z,0.49
2023-09-04T09:46:29.298Z,1.14
2023-09-04T09:48:57.114Z,0.84
2023-09-04T09:51:25.779Z,0.58
2023-09-04T09:53:53.382Z,0.50
2023-09-04T09:56:20.514Z,0.43
2023-09-04T09:58:49.156Z,0.47
2023-09-04T10:01:19.280Z,0.83
2023-09-04T10:03:48.036Z,0.88
2023-09-04T10:06:17.212Z,0.61
2023-09-04T10:08:48.165Z,0.46
2023-09-04T10:11:16.534Z,0.39
2023-09-04T10:13:50.521Z,0.39
2023-09-04T10:16:24.564Z,0.43
2023-09-04T10:18:52.516Z,0.38
2023-09-04T10:21:22.187Z,0.39
2023-09-04T10:24:00.189Z,0.38
2023-09-04T10:26:30.781Z,0.34
2023-09-04T10:29:03.395Z,0.28
2023-09-04T10:31:31.592Z,0.49
2023-09-04T10:33:59.882Z,0.40
2023-09-04T10:36:28.776Z,0.44
2023-09-04T10:38:57.804Z,0.72
2023-09-04T10:41:25.205Z,0.80
2023-09-04T10:43:52.227Z,0.56
2023-09-04T10:46:19.134Z,0.82
2023-09-04T10:48:47.700Z,0.68
2023-09-04T10:51:28.359Z,0.72
2023-09-04T10:53:57.267Z,0.52
2023-09-04T10:56:24.195Z,0.68
2023-09-04T10:59:01.784Z,0.99
2023-09-04T11:01:33.492Z,0.63
2023-09-04T11:04:02.220Z,0.61
2023-09-04T11:06:29.066Z,0.86
2023-09-04T11:08:57.358Z,1.13
2023-09-04T11:11:27.841Z,0.84
2023-09-04T11:13:59.579Z,1.07
2023-09-04T11:16:27.064Z,0.79
2023-09-04T11:19:06.064Z,0.66
2023-09-04T11:21:34.616Z,0.55
2023-09-04T11:24:03.728Z,0.66
2023-09-04T11:26:31.503Z,2.96
2023-09-04T11:28:59.426Z,2.14
2023-09-04T11:31:27.475Z,2.77
2023-09-04T11:33:54.381Z,1.94
2023-09-04T11:36:21.183Z,1.27
2023-09-04T11:38:47.973Z,1.23
2023-09-04T11:41:16.680Z,2.74
2023-09-04T11:43:43.720Z,1.87
2023-09-04T11:46:11.144Z,1.25
2023-09-04T11:48:38.495Z,1.07
2023-09-04T11:51:05.513Z,1.13
2023-09-04T11:53:32.483Z,0.79
2023-09-04T11:55:59.374Z,0.95
2023-09-04T11:58:27.725Z,1.10
2023-09-04T12:00:54.528Z,1.07
2023-09-04T12:03:21.426Z,0.80
2023-09-04T12:05:48.408Z,1.13
2023-09-04T12:08:15.330Z,0.77
2023-09-04T12:10:42.686Z,1.05
2023-09-04T12:13:09.561Z,0.72
2023-09-04T12:15:37.825Z,0.62
2023-09-04T12:18:06.330Z,0.49
2023-09-04T12:20:34.719Z,0.50
2023-09-04T12:23:01.581Z,0.67
2023-09-04T12:25:35.536Z,0.55
2023-09-04T12:28:02.604Z,0.63
2023-09-04T12:30:29.516Z,0.72
2023-09-04T12:32:59.549Z,0.77
2023-09-04T12:35:26.465Z,0.78
2023-09-04T12:37:53.786Z,0.99
2023-09-04T12:40:20.719Z,0.84
2023-09-04T12:42:47.728Z,0.68
2023-09-04T12:45:15.100Z,0.55
2023-09-04T12:47:42.869Z,0.77
2023-09-04T12:50:12.142Z,1.32
2023-09-04T12:52:40.969Z,0.95
2023-09-04T12:55:08.522Z,0.74
2023-09-04T12:57:35.345Z,1.10
2023-09-04T13:00:02.193Z,1.02
2023-09-04T13:02:29.133Z,0.84
2023-09-04T13:04:56.054Z,0.85
2023-09-04T13:07:24.762Z,0.90
2023-09-04T13:09:51.707Z,1.29
2023-09-04T13:12:19.026Z,1.19
2023-09-04T13:14:45.859Z,1.33
2023-09-04T13:17:12.773Z,1.29
2023-09-04T13:19:39.647Z,0.92
2023-09-04T13:22:06.533Z,0.91
2023-09-04T13:24:34.757Z,0.79
2023-09-04T13:27:01.581Z,0.88
2023-09-04T13:29:28.402Z,0.77
2023-09-04T13:31:55.201Z,1.21
2023-09-04T13:34:21.979Z,1.34
2023-09-04T13:36:48.860Z,0.95
2023-09-04T13:39:15.664Z,1.00
2023-09-04T13:41:43.898Z,0.77
2023-09-04T13:44:10.699Z,0.78
2023-09-04T13:46:37.588Z,0.87
2023-09-04T13:49:04.690Z,0.60
2023-09-04T13:51:31.620Z,0.60
2023-09-04T13:53:58.419Z,0.66
2023-09-04T13:56:25.188Z,1.03
2023-09-04T13:58:53.402Z,0.74
2023-09-04T14:01:20.278Z,0.61
2023-09-04T14:03:47.385Z,0.71
2023-09-04T14:06:14.173Z,0.84
2023-09-04T14:08:41.079Z,0.77
2023-09-04T14:11:07.943Z,1.15
2023-09-04T14:13:34.813Z,0.89
2023-09-04T14:16:04.225Z,0.94
2023-09-04T14:18:31.520Z,0.95
2023-09-04T14:21:00.761Z,0.84
2023-09-04T14:23:27.800Z,0.74
2023-09-04T14:25:54.792Z,0.84
2023-09-04T14:28:21.660Z,0.82
2023-09-04T14:30:48.724Z,1.23
2023-09-04T14:33:16.933Z,5.03
2023-09-04T14:35:43.848Z,3.59
2023-09-04T14:38:10.753Z,3.82
2023-09-04T14:40:37.653Z,2.60
2023-09-04T14:43:04.904Z,1.56
2023-09-04T14:45:33.909Z,1.11
2023-09-04T14:48:00.907Z,1.74
2023-09-04T14:50:29.158Z,2.67
2023-09-04T14:52:55.970Z,1.65
2023-09-04T14:55:23.109Z,1.54
2023-09-04T14:57:52.371Z,1.06
2023-09-04T15:00:20.149Z,0.90
2023-09-04T15:02:47.225Z,1.47
2023-09-04T15:05:14.560Z,1.14
2023-09-04T15:07:46.125Z,0.89
2023-09-04T15:10:12.976Z,1.28
2023-09-04T15:12:39.813Z,0.98
2023-09-04T15:15:07.513Z,0.79
2023-09-04T15:17:34.417Z,1.03
2023-09-04T15:20:01.331Z,0.77
2023-09-04T15:22:28.124Z,0.83
2023-09-04T15:24:56.375Z,1.06
2023-09-04T15:27:23.537Z,0.80
2023-09-04T15:29:59.234Z,0.81
2023-09-04T15:32:30.912Z,0.83
2023-09-04T15:35:04.690Z,0.76
2023-09-04T15:37:35.544Z,0.69
2023-09-04T15:40:08.054Z,1.86
2023-09-04T15:42:37.643Z,1.24
2023-09-04T15:45:06.182Z,0.89
2023-09-04T15:47:33.319Z,0.88
2023-09-04T15:50:00.195Z,1.04
2023-09-04T15:52:27.244Z,1.15
2023-09-04T15:54:54.063Z,0.92
2023-09-04T15:57:22.307Z,1.31
2023-09-04T15:59:49.570Z,1.20
2023-09-04T16:02:16.572Z,1.38
2023-09-04T16:04:43.391Z,1.02
2023-09-04T16:07:10.346Z,2.05
2023-09-04T16:09:37.279Z,1.52
2023-09-04T16:12:04.560Z,1.04
2023-09-04T16:14:32.868Z,0.86
2023-09-04T16:17:02.076Z,1.07
2023-09-04T16:19:28.848Z,1.11
2023-09-04T16:21:55.924Z,0.82
2023-09-04T16:24:22.787Z,0.77
2023-09-04T16:26:49.697Z,1.52
2023-09-04T16:29:16.586Z,1.14
2023-09-04T16:31:44.947Z,0.89
2023-09-04T16:34:11.757Z,0.87
2023-09-04T16:36:38.523Z,0.82
2023-09-04T16:39:05.676Z,0.84
2023-09-04T16:41:32.440Z,1.36
2023-09-04T16:43:59.581Z,1.04
2023-09-04T16:46:26.904Z,1.16
2023-09-04T16:48:57.460Z,0.98
2023-09-04T16:51:24.809Z,0.80
2023-09-04T16:53:51.945Z,0.98
2023-09-04T16:56:18.946Z,0.86
2023-09-04T16:58:45.879Z,1.07
2023-09-04T17:01:13.190Z,1.09
2023-09-04T17:03:40.201Z,1.13
2023-09-04T17:06:08.467Z,1.13
2023-09-04T17:08:35.389Z,1.16
2023-09-04T17:11:02.192Z,1.38
2023-09-04T17:13:28.986Z,1.16
2023-09-04T17:15:55.960Z,1.15
2023-09-04T17:18:23.253Z,1.61
2023-09-04T17:20:50.418Z,1.13
2023-09-04T17:23:18.595Z,1.20
2023-09-04T17:25:45.385Z,1.32
2023-09-04T17:28:12.283Z,1.20
2023-09-04T17:30:39.318Z,1.06
2023-09-04T17:33:06.265Z,1.31
2023-09-04T17:35:33.348Z,1.56
2023-09-04T17:38:00.246Z,2.29
2023-09-04T17:40:28.403Z,1.50
2023-09-04T17:42:55.376Z,1.22
2023-09-04T17:45:22.334Z,1.65
2023-09-04T17:47:49.374Z,1.26
2023-09-04T17:50:16.463Z,1.16
2023-09-04T17:53:01.009Z,1.45
2023-09-04T17:55:29.295Z,1.78
2023-09-04T17:57:56.151Z,1.55
2023-09-04T18:00:23.039Z,2.23
2023-09-04T18:02:50.015Z,2.11
2023-09-04T18:05:19.487Z,2.04
2023-09-04T18:07:46.248Z,1.76
2023-09-04T18:10:13.036Z,1.60
2023-09-04T18:12:41.305Z,1.70
2023-09-04T18:15:08.510Z,1.54
2023-09-04T18:17:36.198Z,1.54
2023-09-04T18:20:03.259Z,1.76
2023-09-04T18:22:30.094Z,1.66
2023-09-04T18:24:56.953Z,1.76
2023-09-04T18:27:23.815Z,1.61
2023-09-04T18:29:52.018Z,1.44
2023-09-04T18:32:18.791Z,2.40
2023-09-04T18:34:45.559Z,2.17
2023-09-04T18:37:12.401Z,1.73
2023-09-04T18:39:39.229Z,1.41
2023-09-04T18:42:06.041Z,1.25
2023-09-04T18:44:32.812Z,1.09
2023-09-04T18:47:00.990Z,1.33
2023-09-04T18:49:27.903Z,1.71
2023-09-04T18:51:54.785Z,2.26
2023-09-04T18:54:21.562Z,1.69
2023-09-04T18:56:49.453Z,1.75
2023-09-04T18:59:16.416Z,1.47
2023-09-04T19:01:43.335Z,1.32
2023-09-04T19:04:11.594Z,1.17
2023-09-04T19:06:38.409Z,1.66
2023-09-04T19:09:05.672Z,5.69
2023-09-04T19:11:32.564Z,3.35
2023-09-04T19:13:59.385Z,2.25
2023-09-04T19:16:26.179Z,1.78
2023-09-04T19:18:52.943Z,1.56
2023-09-04T19:21:21.427Z,1.84
2023-09-04T19:23:48.267Z,2.38
2023-09-04T19:26:15.113Z,1.68
2023-09-04T19:31:14.784Z,1.38
2023-09-04T19:33:41.538Z,1.15
2023-09-04T19:36:08.408Z,1.03
2023-09-04T19:38:36.961Z,1.33
2023-09-04T19:41:03.867Z,1.47
2023-09-04T19:43:30.672Z,1.44
2023-09-04T19:45:57.570Z,1.48
2023-09-04T19:48:24.671Z,1.40
2023-09-04T19:50:51.585Z,1.46
2023-09-04T19:53:18.426Z,1.33
2023-09-04T19:55:46.737Z,1.25
2023-09-04T19:58:13.670Z,1.30
2023-09-04T20:00:40.513Z,1.93
2023-09-04T20:03:07.420Z,1.57
2023-09-04T20:05:34.446Z,1.31
2023-09-04T20:08:01.275Z,1.17
2023-09-04T20:10:28.071Z,1.54
2023-09-04T20:12:56.347Z,1.48
2023-09-04T20:15:23.123Z,1.35
2023-09-04T20:17:50.014Z,1.41
2023-09-04T20:20:16.918Z,1.23
2023-09-04T20:22:43.804Z,1.06
2023-09-04T20:25:10.594Z,1.06
2023-09-04T20:27:37.359Z,2.23
2023-09-04T20:30:06.717Z,1.88
2023-09-04T20:32:33.605Z,1.60
2023-09-04T20:35:00.527Z,1.45
2023-09-04T20:37:28.693Z,1.93
2023-09-04T20:39:55.505Z,1.77
2023-09-04T20:42:22.265Z,1.47
2023-09-04T20:44:49.186Z,1.43
2023-09-04T20:47:17.432Z,1.56
2023-09-04T20:49:44.333Z,2.50
2023-09-04T20:52:11.207Z,1.90
2023-09-04T20:54:38.001Z,2.02
2023-09-04T20:57:05.720Z,2.13
2023-09-04T20:59:32.489Z,2.06
2023-09-04T21:01:59.490Z,1.71
2023-09-04T21:04:27.647Z,1.99
2023-09-04T21:06:54.404Z,1.52
2023-09-04T21:09:21.207Z,1.35
2023-09-04T21:11:48.049Z,1.68
2023-09-04T21:14:14.892Z,2.19
2023-09-04T21:16:41.803Z,1.78
2023-09-04T21:19:08.591Z,1.28
2023-09-04T21:21:36.761Z,1.15
2023-09-04T21:24:04.029Z,1.15
2023-09-04T21:26:30.856Z,2.54
2023-09-04T21:28:57.708Z,1.74
2023-09-04T21:31:24.494Z,1.67
2023-09-04T21:33:51.310Z,1.67
2023-09-04T21:36:18.215Z,2.90
2023-09-04T21:38:46.450Z,1.98
2023-09-04T21:41:13.282Z,1.59
2023-09-04T21:43:40.043Z,1.47
2023-09-04T21:46:06.954Z,1.12
2023-09-04T21:48:33.773Z,1.36
2023-09-04T21:51:00.576Z,1.06
2023-09-04T21:53:27.610Z,0.85
2023-09-04T21:55:56.036Z,1.13
2023-09-04T21:58:22.830Z,1.03
2023-09-04T22:00:49.660Z,1.04
2023-09-04T22:03:16.584Z,3.92
2023-09-04T22:05:43.556Z,2.98
2023-09-04T22:08:10.307Z,2.09
2023-09-04T22:10:37.119Z,1.91
2023-09-04T22:13:05.511Z,1.55
2023-09-04T22:15:32.409Z,1.29
2023-09-04T22:18:17.478Z,1.65
2023-09-04T22:20:44.373Z,1.67
2023-09-04T22:23:11.132Z,2.22
2023-09-04T22:25:38.039Z,1.86
2023-09-04T22:28:06.352Z,1.45
2023-09-04T22:30:33.147Z,1.19
2023-09-04T22:33:00.110Z,1.16
2023-09-04T22:35:26.913Z,1.24
2023-09-04T22:37:54.092Z,1.19
2023-09-04T22:40:20.854Z,1.27
2023-09-04T22:42:47.636Z,1.10
2023-09-04T22:45:15.887Z,1.51
2023-09-04T22:47:42.702Z,1.23
2023-09-04T22:50:09.770Z,1.17
2023-09-04T22:52:36.543Z,1.72
2023-09-04T22:55:03.960Z,1.41
2023-09-04T22:57:30.801Z,1.46
2023-09-04T22:59:57.589Z,1.84
2023-09-04T23:02:25.750Z,3.17
2023-09-04T23:04:52.496Z,2.24
2023-09-04T23:07:19.366Z,1.58
2023-09-04T23:09:46.208Z,1.37
2023-09-04T23:12:13.065Z,1.69
2023-09-04T23:14:39.832Z,2.52
2023-09-04T23:17:06.606Z,2.20
2023-09-04T23:19:34.871Z,1.51
2023-09-04T23:22:01.743Z,1.69
2023-09-04T23:24:28.498Z,2.25
2023-09-04T23:26:55.468Z,1.99
2023-09-04T23:29:23.486Z,1.90
2023-09-04T23:31:51.312Z,1.36
2023-09-04T23:34:19.684Z,1.52
2023-09-04T23:36:47.855Z,2.30
2023-09-04T23:39:15.597Z,1.96
2023-09-04T23:41:42.379Z,1.53
2023-09-04T23:44:09.188Z,1.38
2023-09-04T23:46:36.146Z,1.23
2023-09-04T23:49:03.176Z,1.16
2023-09-04T23:51:30.007Z,1.27
2023-09-04T23:53:58.246Z,1.18
2023-09-04T23:56:25.045Z,1.24
2023-09-04T23:58:51.899Z,1.18
